createdAt,value
2019-04-06T00:02:12.383Z,4.23
2019-04-06T00:04:43.018Z,4.40
2019-04-06T00:07:11.429Z,4.97
2019-04-06T00:09:39.989Z,4.23
2019-04-06T00:12:08.396Z,4.40
2019-04-06T00:14:37.243Z,4.27
2019-04-06T00:17:05.634Z,4.13
2019-04-06T00:19:36.011Z,6.97
2019-04-06T00:22:06.010Z,3.63
2019-04-06T00:24:34.430Z,5.17
2019-04-06T00:27:02.861Z,4.20
2019-04-06T00:29:31.268Z,4.10
2019-04-06T00:32:01.342Z,3.77
2019-04-06T00:34:29.753Z,4.33
2019-04-06T00:36:58.204Z,4.20
2019-04-06T00:39:27.979Z,3.93
2019-04-06T00:41:56.431Z,4.10
2019-04-06T00:44:25.139Z,5.00
2019-04-06T00:46:53.550Z,4.40
2019-04-06T00:49:21.982Z,4.13
2019-04-06T00:51:50.389Z,4.20
2019-04-06T00:54:18.837Z,4.30
2019-04-06T00:56:48.596Z,3.93
2019-04-06T00:59:17.043Z,4.30
2019-04-06T01:01:45.456Z,3.90
2019-04-06T01:04:13.903Z,4.20
2019-04-06T01:06:42.312Z,4.03
2019-04-06T01:09:12.267Z,4.00
2019-04-06T01:11:41.253Z,4.30
2019-04-06T01:14:10.903Z,4.10
2019-04-06T01:16:39.341Z,6.03
2019-04-06T01:19:07.750Z,3.90
2019-04-06T01:21:38.245Z,4.27
2019-04-06T01:24:06.666Z,3.83
2019-04-06T01:26:35.097Z,3.93
2019-04-06T01:29:03.508Z,4.00
2019-04-06T01:31:31.944Z,3.97
2019-04-06T01:34:00.617Z,4.17
2019-04-06T01:36:29.985Z,4.07
2019-04-06T01:39:01.175Z,3.80
2019-04-06T01:41:31.274Z,3.93
2019-04-06T01:44:09.920Z,4.10
2019-04-06T01:46:39.969Z,4.10
2019-04-06T01:49:08.377Z,3.90
2019-04-06T01:51:37.805Z,3.80
2019-04-06T01:54:06.312Z,3.70
2019-04-06T01:56:34.834Z,4.60
2019-04-06T01:59:03.841Z,3.60
2019-04-06T02:01:36.797Z,3.30
2019-04-06T02:04:05.241Z,3.77
2019-04-06T02:06:33.656Z,4.03
2019-04-06T02:09:02.100Z,3.53
2019-04-06T02:11:30.510Z,3.90
2019-04-06T02:13:59.200Z,3.70
2019-04-06T02:16:27.887Z,3.33
2019-04-06T02:18:56.465Z,3.03
2019-04-06T02:21:24.847Z,3.37
2019-04-06T02:23:53.539Z,3.23
2019-04-06T02:26:30.380Z,3.30
2019-04-06T02:28:53.017Z,3.50
2019-04-06T02:31:32.164Z,4.00
2019-04-06T02:34:05.051Z,3.70
2019-04-06T02:36:41.081Z,4.03
2019-04-06T02:39:12.912Z,3.30
2019-04-06T02:41:50.512Z,3.43
2019-04-06T02:44:21.916Z,3.77
2019-04-06T02:46:50.840Z,3.67
2019-04-06T02:49:19.230Z,3.07
2019-04-06T02:51:47.668Z,3.17
2019-04-06T02:54:17.103Z,3.13
2019-04-06T02:56:47.621Z,3.73
2019-04-06T02:59:16.415Z,3.20
2019-04-06T03:01:45.150Z,3.87
2019-04-06T03:04:13.547Z,3.20
2019-04-06T03:06:42.294Z,3.50
2019-04-06T03:09:12.185Z,3.37
2019-04-06T03:11:40.951Z,3.63
2019-04-06T03:14:09.402Z,3.57
2019-04-06T03:16:37.815Z,3.20
2019-04-06T03:19:06.368Z,3.30
2019-04-06T03:21:35.022Z,3.30
2019-04-06T03:24:03.743Z,3.43
2019-04-06T03:26:32.158Z,3.27
2019-04-06T03:29:00.614Z,3.93
2019-04-06T03:31:29.306Z,3.27
2019-04-06T03:33:57.875Z,3.30
2019-04-06T03:36:26.460Z,3.30
2019-04-06T03:38:54.902Z,3.00
2019-04-06T03:41:23.349Z,3.10
2019-04-06T03:43:52.027Z,3.00
2019-04-06T03:46:20.475Z,2.70
2019-04-06T03:48:49.152Z,3.03
2019-04-06T03:51:17.605Z,3.07
2019-04-06T03:53:46.025Z,3.20
2019-04-06T03:56:14.455Z,3.27
2019-04-06T03:58:42.866Z,3.03
2019-04-06T04:01:12.058Z,2.80
2019-04-06T04:03:40.544Z,3.00
2019-04-06T04:06:08.967Z,2.93
2019-04-06T04:08:37.582Z,2.60
2019-04-06T04:11:06.305Z,2.87
2019-04-06T04:13:34.761Z,3.00
2019-04-06T04:16:03.194Z,2.77
2019-04-06T04:18:32.458Z,3.07
2019-04-06T04:21:02.158Z,2.63
2019-04-06T04:23:30.867Z,2.63
2019-04-06T04:26:00.329Z,2.73
2019-04-06T04:28:28.733Z,3.80
2019-04-06T04:30:57.170Z,2.80
2019-04-06T04:33:25.593Z,2.90
2019-04-06T04:35:54.186Z,2.97
2019-04-06T04:38:22.750Z,2.80
2019-04-06T04:40:51.194Z,3.00
2019-04-06T04:43:19.609Z,3.30
2019-04-06T04:45:48.050Z,3.13
2019-04-06T04:48:17.682Z,2.83
2019-04-06T04:50:46.131Z,2.97
2019-04-06T04:53:15.667Z,2.60
2019-04-06T04:55:44.118Z,2.50
2019-04-06T04:58:12.557Z,2.70
2019-04-06T05:00:42.756Z,3.10
2019-04-06T05:03:12.794Z,2.73
2019-04-06T05:05:41.298Z,2.77
2019-04-06T05:08:09.847Z,2.40
2019-04-06T05:10:38.270Z,2.53
2019-04-06T05:13:06.690Z,2.30
2019-04-06T05:15:50.345Z,2.50
2019-04-06T05:18:18.777Z,3.20
2019-04-06T05:20:47.191Z,2.67
2019-04-06T05:23:15.625Z,2.50
2019-04-06T05:25:44.355Z,2.50
2019-04-06T05:28:13.617Z,2.33
2019-04-06T05:30:42.192Z,2.47
2019-04-06T05:33:10.567Z,2.57
2019-04-06T05:35:39.686Z,2.33
2019-04-06T05:38:08.333Z,2.47
2019-04-06T05:40:36.752Z,2.40
2019-04-06T05:43:05.172Z,2.43
2019-04-06T05:45:33.592Z,2.00
2019-04-06T05:48:02.224Z,2.50
2019-04-06T05:50:33.775Z,2.30
2019-04-06T05:53:02.198Z,2.03
2019-04-06T05:55:31.426Z,2.60
2019-04-06T05:58:04.215Z,2.10
2019-04-06T06:00:29.914Z,2.20
2019-04-06T06:02:58.320Z,2.43
2019-04-06T06:05:26.769Z,2.27
2019-04-06T06:07:55.188Z,2.40
2019-04-06T06:10:23.652Z,1.80
2019-04-06T06:12:52.061Z,3.50
2019-04-06T06:15:20.608Z,2.17
2019-04-06T06:17:49.130Z,2.17
2019-04-06T06:20:17.544Z,2.30
2019-04-06T06:22:45.982Z,2.20
2019-04-06T06:25:14.420Z,2.27
2019-04-06T06:27:43.131Z,2.40
2019-04-06T06:30:12.688Z,2.17
2019-04-06T06:32:41.400Z,2.23
2019-04-06T06:35:09.838Z,2.43
2019-04-06T06:37:38.290Z,2.30
2019-04-06T06:40:07.147Z,2.10
2019-04-06T06:42:35.563Z,2.83
2019-04-06T06:45:05.052Z,2.07
2019-04-06T06:47:35.786Z,3.93
2019-04-06T06:50:07.180Z,2.00
2019-04-06T06:52:35.586Z,2.50
2019-04-06T06:55:05.647Z,3.97
2019-04-06T06:57:34.064Z,2.27
2019-04-06T07:00:02.562Z,1.90
2019-04-06T07:02:31.625Z,3.17
2019-04-06T07:05:00.042Z,2.10
2019-04-06T07:07:28.473Z,2.30
2019-04-06T07:10:05.043Z,1.80
2019-04-06T07:12:26.977Z,2.07
2019-04-06T07:14:55.517Z,1.87
2019-04-06T07:17:23.925Z,1.70
2019-04-06T07:19:52.342Z,1.87
2019-04-06T07:22:22.916Z,1.80
2019-04-06T07:24:51.361Z,1.70
2019-04-06T07:27:21.400Z,1.70
2019-04-06T07:29:51.479Z,2.00
2019-04-06T07:32:19.881Z,2.53
2019-04-06T07:34:48.321Z,1.60
2019-04-06T07:37:16.750Z,1.50
2019-04-06T07:39:45.409Z,1.83
2019-04-06T07:42:13.795Z,2.00
2019-04-06T07:44:42.378Z,2.33
2019-04-06T07:47:10.741Z,1.83
2019-04-06T07:49:40.275Z,2.70
2019-04-06T07:52:08.827Z,1.87
2019-04-06T07:54:38.866Z,1.97
2019-04-06T07:57:07.310Z,1.97
2019-04-06T07:59:35.865Z,1.93
2019-04-06T08:02:04.370Z,1.80
2019-04-06T08:04:32.743Z,1.60
2019-04-06T08:07:01.159Z,1.70
2019-04-06T08:09:31.644Z,1.83
2019-04-06T08:12:00.052Z,1.80
2019-04-06T08:14:28.492Z,1.63
2019-04-06T08:16:57.054Z,1.93
2019-04-06T08:19:26.968Z,1.70
2019-04-06T08:21:57.023Z,1.80
2019-04-06T08:24:27.161Z,1.60
2019-04-06T08:26:55.593Z,2.20
2019-04-06T08:29:26.978Z,1.70
2019-04-06T08:31:55.640Z,1.93
2019-04-06T08:34:25.868Z,1.83
2019-04-06T08:36:54.276Z,1.87
2019-04-06T08:39:25.323Z,2.13
2019-04-06T08:41:53.249Z,2.10
2019-04-06T08:44:21.788Z,2.30
2019-04-06T08:46:51.050Z,1.80
2019-04-06T08:49:19.461Z,1.80
2019-04-06T08:51:48.025Z,1.70
2019-04-06T08:54:16.456Z,1.70
2019-04-06T08:56:45.324Z,1.73
2019-04-06T08:59:13.759Z,1.93
2019-04-06T09:01:42.235Z,1.80
2019-04-06T09:04:10.574Z,2.30
2019-04-06T09:06:39.009Z,3.97
2019-04-06T09:09:16.610Z,2.30
2019-04-06T09:11:45.047Z,3.40
2019-04-06T09:14:13.453Z,5.30
2019-04-06T09:16:45.632Z,3.00
2019-04-06T09:19:14.003Z,5.57
2019-04-06T09:21:42.433Z,5.70
2019-04-06T09:24:10.852Z,6.10
2019-04-06T09:26:40.655Z,7.33
2019-04-06T09:29:09.094Z,7.27
2019-04-06T09:31:37.523Z,6.93
2019-04-06T09:34:05.942Z,7.40
2019-04-06T09:36:34.343Z,7.00
2019-04-06T09:39:02.791Z,7.33
2019-04-06T09:41:31.523Z,7.47
2019-04-06T09:43:59.948Z,9.27
2019-04-06T09:46:29.997Z,7.67
2019-04-06T09:49:14.940Z,8.30
2019-04-06T09:51:44.990Z,8.20
2019-04-06T09:54:15.039Z,8.00
2019-04-06T09:56:48.065Z,7.80
2019-04-06T09:59:35.903Z,7.27
2019-04-06T10:02:17.185Z,8.40
2019-04-06T10:04:56.348Z,8.50
2019-04-06T10:07:42.404Z,9.40
2019-04-06T10:10:27.484Z,8.27
2019-04-06T10:12:57.556Z,9.60
2019-04-06T10:15:42.673Z,8.90
2019-04-06T10:18:15.526Z,8.33
2019-04-06T10:20:45.576Z,9.43
2019-04-06T10:23:15.674Z,9.20
2019-04-06T10:25:48.685Z,9.27
2019-04-06T10:28:38.001Z,9.83
2019-04-06T10:31:16.940Z,9.53
2019-04-06T10:33:47.274Z,9.80
2019-04-06T10:36:17.277Z,10.03
2019-04-06T10:39:02.949Z,9.60
2019-04-06T10:41:33.005Z,8.73
2019-04-06T10:44:17.830Z,9.03
2019-04-06T10:46:53.098Z,10.23
2019-04-06T10:49:37.769Z,9.67
2019-04-06T10:52:10.516Z,9.43
2019-04-06T10:54:49.536Z,10.60
2019-04-06T10:57:34.121Z,10.93
2019-04-06T11:00:04.199Z,12.67
2019-04-06T11:02:46.206Z,11.57
2019-04-06T11:05:34.184Z,12.10
2019-04-06T11:08:20.482Z,10.73
2019-04-06T11:10:51.098Z,11.27
2019-04-06T11:13:37.127Z,10.23
2019-04-06T11:16:12.877Z,9.63
2019-04-06T11:18:59.151Z,9.50
2019-04-06T11:21:44.417Z,9.10
2019-04-06T11:24:32.370Z,9.33
2019-04-06T11:27:13.917Z,12.47
2019-04-06T11:29:49.598Z,10.17
2019-04-06T11:32:37.648Z,10.87
2019-04-06T11:35:08.356Z,10.03
2019-04-06T11:37:54.572Z,10.80
2019-04-06T11:40:32.979Z,9.73
2019-04-06T11:43:03.161Z,9.33
2019-04-06T11:45:33.512Z,11.10
2019-04-06T11:48:07.789Z,11.13
2019-04-06T11:50:40.925Z,9.70
2019-04-06T11:53:12.034Z,10.77
2019-04-06T11:55:54.764Z,11.87
2019-04-06T11:58:36.923Z,10.40
2019-04-06T12:01:16.017Z,8.40
2019-04-06T12:03:51.832Z,8.17
2019-04-06T12:06:23.663Z,7.50
2019-04-06T12:08:53.727Z,6.87
2019-04-06T12:11:38.592Z,7.30
2019-04-06T12:14:08.721Z,5.43
2019-04-06T12:16:50.757Z,5.63
2019-04-06T12:19:20.972Z,5.40
2019-04-06T12:22:03.058Z,4.93
2019-04-06T12:24:42.305Z,4.90
2019-04-06T12:27:30.465Z,6.37
2019-04-06T12:30:01.009Z,7.30
2019-04-06T12:32:49.885Z,10.47
2019-04-06T12:35:25.976Z,8.33
2019-04-06T12:38:13.116Z,5.67
2019-04-06T12:41:11.540Z,5.47
2019-04-06T12:43:44.364Z,5.63
2019-04-06T12:46:14.421Z,7.53
2019-04-06T12:48:52.361Z,9.23
2019-04-06T12:51:37.888Z,10.33
2019-04-06T12:54:09.585Z,11.17
2019-04-06T12:56:56.838Z,8.93
2019-04-06T12:59:36.138Z,6.97
2019-04-06T13:02:12.965Z,8.47
2019-04-06T13:04:47.473Z,8.53
2019-04-06T13:07:33.324Z,6.10
2019-04-06T13:10:06.221Z,6.53
2019-04-06T13:12:36.342Z,7.43
2019-04-06T13:15:23.690Z,9.47
2019-04-06T13:17:59.604Z,5.43
2019-04-06T13:20:30.052Z,7.37
2019-04-06T13:23:09.449Z,6.97
2019-04-06T13:25:39.595Z,8.50
2019-04-06T13:28:12.423Z,7.07
2019-04-06T13:30:49.696Z,5.67
2019-04-06T13:33:29.062Z,7.50
2019-04-06T13:35:59.247Z,8.33
2019-04-06T13:38:35.047Z,7.47
2019-04-06T13:41:05.480Z,7.27
2019-04-06T13:43:47.296Z,7.13
2019-04-06T13:46:32.092Z,4.10
2019-04-06T13:49:05.070Z,5.63
2019-04-06T13:51:35.584Z,4.57
2019-04-06T13:54:05.766Z,6.23
2019-04-06T13:56:45.086Z,9.20
2019-04-06T13:59:27.479Z,4.63
2019-04-06T14:02:00.312Z,6.53
2019-04-06T14:04:30.407Z,6.73
2019-04-06T14:07:02.535Z,5.87
2019-04-06T14:09:33.241Z,8.47
2019-04-06T14:12:09.624Z,8.30
2019-04-06T14:14:40.659Z,5.33
2019-04-06T14:17:27.154Z,6.13
2019-04-06T14:20:14.425Z,4.33
2019-04-06T14:23:00.605Z,4.53
2019-04-06T14:25:53.252Z,5.60
2019-04-06T14:28:23.010Z,5.03
2019-04-06T14:31:11.962Z,5.47
2019-04-06T14:33:51.782Z,5.50
2019-04-06T14:36:26.395Z,5.33
2019-04-06T14:39:14.445Z,7.03
2019-04-06T14:41:52.149Z,4.57
2019-04-06T14:44:22.770Z,4.60
2019-04-06T14:46:58.831Z,6.10
2019-04-06T14:49:46.125Z,5.53
2019-04-06T14:52:17.875Z,4.47
2019-04-06T14:55:07.863Z,4.33
2019-04-06T14:57:41.270Z,4.13
2019-04-06T15:00:29.988Z,3.43
2019-04-06T15:03:20.554Z,4.87
2019-04-06T15:06:06.213Z,4.10
2019-04-06T15:08:42.276Z,4.27
2019-04-06T15:11:20.744Z,4.07
2019-04-06T15:14:08.595Z,4.23
2019-04-06T15:16:54.357Z,4.33
2019-04-06T15:19:31.516Z,4.70
2019-04-06T15:22:23.877Z,3.67
2019-04-06T15:24:56.713Z,5.07
2019-04-06T15:27:37.550Z,3.67
2019-04-06T15:30:33.814Z,6.20
2019-04-06T15:33:24.724Z,5.00
2019-04-06T15:35:58.480Z,3.37
2019-04-06T15:38:36.389Z,3.50
2019-04-06T15:41:24.783Z,3.67
2019-04-06T15:43:59.366Z,4.50
2019-04-06T15:46:46.843Z,4.20
2019-04-06T15:49:30.363Z,3.73
2019-04-06T15:52:16.356Z,3.90
2019-04-06T15:54:51.981Z,3.53
2019-04-06T15:57:26.767Z,4.17
2019-04-06T16:00:14.052Z,4.20
2019-04-06T16:03:03.259Z,3.60
2019-04-06T16:05:52.166Z,3.20
2019-04-06T16:08:29.776Z,6.10
2019-04-06T16:11:01.031Z,4.67
2019-04-06T16:13:38.151Z,3.97
2019-04-06T16:16:21.869Z,3.77
2019-04-06T16:19:02.347Z,4.70
2019-04-06T16:21:44.104Z,4.00
2019-04-06T16:26:53.572Z,4.13
2019-04-06T16:29:32.952Z,3.80
2019-04-06T16:32:31.443Z,3.93
2019-04-06T16:35:04.730Z,3.50
2019-04-06T16:40:30.498Z,3.37
2019-04-06T16:43:08.103Z,4.00
2019-04-06T16:45:42.696Z,4.77
2019-04-06T16:48:21.314Z,4.30
2019-04-06T16:50:56.641Z,4.10
2019-04-06T16:53:34.532Z,3.27
2019-04-06T16:56:24.388Z,3.40
2019-04-06T16:58:57.948Z,3.43
2019-04-06T17:04:16.789Z,3.93
2019-04-06T17:06:51.161Z,3.47
2019-04-06T17:09:40.228Z,3.97
2019-04-06T17:12:29.813Z,3.57
2019-04-06T17:15:19.464Z,3.43
2019-04-06T17:17:58.755Z,3.37
2019-04-06T17:20:35.981Z,3.43
2019-04-06T17:23:25.899Z,3.40
2019-04-06T17:25:59.386Z,3.60
2019-04-06T17:28:30.151Z,3.13
2019-04-06T17:31:08.378Z,2.90
2019-04-06T17:33:53.760Z,3.47
2019-04-06T17:36:31.090Z,3.13
2019-04-06T17:39:20.618Z,3.17
2019-04-06T17:41:52.502Z,3.47
2019-04-06T17:44:40.496Z,2.87
2019-04-06T17:47:30.161Z,3.07
2019-04-06T17:50:01.902Z,3.27
2019-04-06T17:52:40.246Z,3.30
2019-04-06T17:55:22.510Z,3.23
2019-04-06T17:58:25.947Z,3.07
2019-04-06T18:01:10.220Z,3.20
2019-04-06T18:03:52.310Z,6.17
2019-04-06T18:06:38.764Z,3.60
2019-04-06T18:09:12.441Z,4.07
2019-04-06T18:11:48.404Z,4.10
2019-04-06T18:14:18.496Z,3.50
2019-04-06T18:16:46.898Z,4.80
2019-04-06T18:19:15.650Z,4.50
2019-04-06T18:21:44.165Z,3.50
2019-04-06T18:24:12.575Z,6.77
2019-04-06T18:26:41.017Z,5.60
2019-04-06T18:29:09.693Z,4.93
2019-04-06T18:31:39.732Z,4.33
2019-04-06T18:34:08.153Z,4.17
2019-04-06T18:36:56.116Z,3.60
2019-04-06T18:39:26.522Z,3.27
2019-04-06T18:41:55.164Z,3.60
2019-04-06T18:44:23.549Z,3.40
2019-04-06T18:46:51.982Z,5.80
2019-04-06T18:49:20.401Z,9.60
2019-04-06T18:51:51.754Z,3.53
2019-04-06T18:54:20.225Z,3.20
2019-04-06T18:56:48.668Z,4.10
2019-04-06T18:59:17.089Z,3.67
2019-04-06T19:01:45.897Z,3.30
2019-04-06T19:04:14.344Z,3.10
2019-04-06T19:06:43.130Z,3.00
2019-04-06T19:09:22.181Z,5.47
2019-04-06T19:11:52.870Z,3.40
2019-04-06T19:14:12.375Z,3.00
2019-04-06T19:16:41.072Z,3.07
2019-04-06T19:19:09.485Z,3.50
2019-04-06T19:21:37.899Z,3.80
2019-04-06T19:24:06.842Z,3.47
2019-04-06T19:26:37.436Z,3.33
2019-04-06T19:29:05.336Z,3.30
2019-04-06T19:31:33.753Z,3.87
2019-04-06T19:34:02.311Z,3.53
2019-04-06T19:36:30.809Z,3.60
2019-04-06T19:38:59.495Z,4.30
2019-04-06T19:41:28.097Z,3.10
2019-04-06T19:43:56.613Z,3.20
2019-04-06T19:46:25.004Z,4.30
2019-04-06T19:48:53.417Z,5.10
2019-04-06T19:51:21.860Z,10.07
2019-04-06T19:53:50.277Z,3.53
2019-04-06T19:56:18.718Z,3.47
2019-04-06T19:58:47.128Z,4.73
2019-04-06T20:01:15.951Z,8.37
2019-04-06T20:03:44.584Z,3.87
2019-04-06T20:06:13.325Z,3.33
2019-04-06T20:08:47.399Z,4.93
2019-04-06T20:11:15.800Z,4.83
2019-04-06T20:13:44.429Z,5.30
2019-04-06T20:16:12.878Z,3.87
2019-04-06T20:18:41.670Z,4.60
2019-04-06T20:21:10.124Z,13.53
2019-04-06T20:23:39.013Z,3.67
2019-04-06T20:26:07.924Z,3.97
2019-04-06T20:28:36.414Z,4.03
2019-04-06T20:31:04.860Z,3.33
2019-04-06T20:33:33.255Z,3.10
2019-04-06T20:36:01.693Z,3.70
2019-04-06T20:38:30.108Z,5.77
2019-04-06T20:41:00.654Z,3.10
2019-04-06T20:43:29.106Z,4.53
2019-04-06T20:45:57.581Z,6.33
2019-04-06T20:48:25.969Z,3.37
2019-04-06T20:50:54.425Z,3.03
2019-04-06T20:53:22.832Z,3.40
2019-04-06T20:55:51.255Z,4.50
2019-04-06T20:58:19.685Z,3.20
2019-04-06T21:00:48.316Z,3.03
2019-04-06T21:03:16.744Z,3.43
2019-04-06T21:05:46.555Z,3.57
2019-04-06T21:08:15.510Z,3.40
2019-04-06T21:10:44.069Z,3.00
2019-04-06T21:13:12.502Z,3.17
2019-04-06T21:15:40.910Z,4.00
2019-04-06T21:18:09.399Z,5.43
2019-04-06T21:20:38.028Z,3.70
2019-04-06T21:23:06.525Z,3.90
2019-04-06T21:25:35.342Z,3.60
2019-04-06T21:28:04.244Z,4.07
2019-04-06T21:30:32.648Z,3.60
2019-04-06T21:33:01.154Z,4.13
2019-04-06T21:35:30.104Z,3.40
2019-04-06T21:37:58.584Z,4.57
2019-04-06T21:40:27.250Z,3.70
2019-04-06T21:42:55.645Z,4.77
2019-04-06T21:45:24.085Z,3.70
2019-04-06T21:47:53.021Z,3.50
2019-04-06T21:50:21.915Z,4.77
2019-04-06T21:52:50.796Z,3.23
2019-04-06T21:55:19.487Z,3.63
2019-04-06T21:57:47.919Z,3.00
2019-04-06T22:00:24.175Z,3.53
2019-04-06T22:02:52.518Z,3.50
2019-04-06T22:05:21.450Z,3.60
2019-04-06T22:07:53.552Z,4.43
2019-04-06T22:10:21.941Z,3.50
2019-04-06T22:12:50.353Z,3.10
2019-04-06T22:15:19.236Z,4.43
2019-04-06T22:17:47.767Z,3.73
2019-04-06T22:20:16.250Z,3.07
2019-04-06T22:22:44.647Z,3.40
2019-04-06T22:25:13.081Z,3.37
2019-04-06T22:27:41.493Z,4.13
2019-04-06T22:30:10.525Z,3.97
2019-04-06T22:32:39.296Z,2.87
2019-04-06T22:35:07.737Z,5.50
2019-04-06T22:37:36.246Z,3.33
2019-04-06T22:40:05.587Z,2.90
2019-04-06T22:42:34.261Z,3.93
2019-04-06T22:45:02.702Z,2.93
2019-04-06T22:47:31.385Z,3.07
2019-04-06T22:50:00.430Z,2.63
2019-04-06T22:52:29.029Z,3.17
2019-04-06T22:54:57.391Z,2.80
2019-04-06T22:57:26.047Z,2.73
2019-04-06T22:59:56.368Z,3.00
2019-04-06T23:02:25.783Z,3.63
2019-04-06T23:05:10.702Z,3.70
2019-04-06T23:07:39.190Z,3.10
2019-04-06T23:10:07.994Z,3.30
2019-04-06T23:12:36.999Z,4.50
2019-04-06T23:15:07.045Z,3.20
2019-04-06T23:17:35.473Z,3.87
2019-04-06T23:20:07.517Z,3.20
2019-04-06T23:22:36.424Z,3.77
2019-04-06T23:25:05.239Z,4.13
2019-04-06T23:27:33.645Z,3.00
2019-04-06T23:30:02.095Z,3.30
2019-04-06T23:32:30.660Z,2.67
2019-04-06T23:35:02.060Z,4.83
2019-04-06T23:37:31.181Z,2.80
2019-04-06T23:40:00.670Z,3.00
2019-04-06T23:42:29.665Z,2.90
2019-04-06T23:44:58.065Z,3.67
2019-04-06T23:47:26.506Z,3.27
2019-04-06T23:49:55.032Z,2.93
2019-04-06T23:52:25.311Z,3.10
2019-04-06T23:54:54.198Z,3.07
2019-04-06T23:57:23.178Z,3.30
2019-04-06T23:59:52.728Z,4.20
